sensor_id;sensor_type;location;lat;lon;timestamp;P1;durP1;ratioP1;P2;durP2;ratioP2
47403;SDS011;33157;51.508;4.288;2023-01-09T00:04:32;4.82;;;1.65;;
47403;SDS011;33157;51.508;4.288;2023-01-09T00:09:33;5.45;;;1.60;;
47403;SDS011;33157;51.508;4.288;2023-01-09T00:14:33;6.97;;;1.30;;
47403;SDS011;33157;51.508;4.288;2023-01-09T00:19:39;6.75;;;1.52;;
47403;SDS011;33157;51.508;4.288;2023-01-09T00:24:39;3.47;;;1.60;;
47403;SDS011;33157;51.508;4.288;2023-01-09T00:29:41;6.35;;;2.05;;
47403;SDS011;33157;51.508;4.288;2023-01-09T00:34:43;5.88;;;1.63;;
47403;SDS011;33157;51.508;4.288;2023-01-09T00:39:44;6.63;;;1.80;;
47403;SDS011;33157;51.508;4.288;2023-01-09T00:44:46;7.20;;;1.90;;
47403;SDS011;33157;51.508;4.288;2023-01-09T00:49:51;5.45;;;1.73;;
47403;SDS011;33157;51.508;4.288;2023-01-09T00:54:58;6.95;;;1.60;;
47403;SDS011;33157;51.508;4.288;2023-01-09T00:59:59;5.97;;;1.88;;
47403;SDS011;33157;51.508;4.288;2023-01-09T01:05:01;6.03;;;1.48;;
47403;SDS011;33157;51.508;4.288;2023-01-09T01:10:22;4.45;;;2.58;;
47403;SDS011;33157;51.508;4.288;2023-01-09T01:15:24;5.38;;;1.73;;
47403;SDS011;33157;51.508;4.288;2023-01-09T01:20:33;4.85;;;1.52;;
47403;SDS011;33157;51.508;4.288;2023-01-09T01:25:38;7.60;;;2.28;;
47403;SDS011;33157;51.508;4.288;2023-01-09T01:30:44;7.63;;;1.60;;
47403;SDS011;33157;51.508;4.288;2023-01-09T01:35:45;7.63;;;1.60;;
47403;SDS011;33157;51.508;4.288;2023-01-09T01:40:51;7.53;;;1.80;;
47403;SDS011;33157;51.508;4.288;2023-01-09T01:45:52;3.58;;;1.45;;
47403;SDS011;33157;51.508;4.288;2023-01-09T01:50:55;6.10;;;1.58;;
47403;SDS011;33157;51.508;4.288;2023-01-09T02:01:23;4.63;;;1.30;;
47403;SDS011;33157;51.508;4.288;2023-01-09T02:06:24;7.93;;;1.77;;
47403;SDS011;33157;51.508;4.288;2023-01-09T02:11:25;5.85;;;1.67;;
47403;SDS011;33157;51.508;4.288;2023-01-09T02:21:45;7.20;;;1.90;;
47403;SDS011;33157;51.508;4.288;2023-01-09T02:27:05;6.65;;;1.80;;
47403;SDS011;33157;51.508;4.288;2023-01-09T02:42:38;4.78;;;1.75;;
47403;SDS011;33157;51.508;4.288;2023-01-09T02:47:47;10.02;;;1.65;;
47403;SDS011;33157;51.508;4.288;2023-01-09T03:08:25;5.95;;;1.90;;
47403;SDS011;33157;51.508;4.288;2023-01-09T03:13:50;5.70;;;1.42;;
47403;SDS011;33157;51.508;4.288;2023-01-09T03:18:54;7.70;;;1.90;;
47403;SDS011;33157;51.508;4.288;2023-01-09T03:23:56;8.80;;;2.35;;
47403;SDS011;33157;51.508;4.288;2023-01-09T03:29:07;9.48;;;2.00;;
47403;SDS011;33157;51.508;4.288;2023-01-09T03:34:14;8.95;;;1.67;;
47403;SDS011;33157;51.508;4.288;2023-01-09T03:39:15;7.55;;;1.52;;
47403;SDS011;33157;51.508;4.288;2023-01-09T03:44:20;11.95;;;1.75;;
47403;SDS011;33157;51.508;4.288;2023-01-09T03:49:21;8.65;;;2.05;;
47403;SDS011;33157;51.508;4.288;2023-01-09T03:54:27;7.60;;;1.52;;
47403;SDS011;33157;51.508;4.288;2023-01-09T03:59:27;8.60;;;2.00;;
47403;SDS011;33157;51.508;4.288;2023-01-09T04:04:33;5.00;;;1.40;;
47403;SDS011;33157;51.508;4.288;2023-01-09T04:09:34;5.25;;;1.10;;
47403;SDS011;33157;51.508;4.288;2023-01-09T04:14:34;12.10;;;1.80;;
47403;SDS011;33157;51.508;4.288;2023-01-09T04:19:40;6.68;;;1.60;;
47403;SDS011;33157;51.508;4.288;2023-01-09T04:24:40;9.10;;;1.60;;
47403;SDS011;33157;51.508;4.288;2023-01-09T04:29:46;5.05;;;1.55;;
47403;SDS011;33157;51.508;4.288;2023-01-09T04:34:47;5.30;;;1.55;;
47403;SDS011;33157;51.508;4.288;2023-01-09T04:39:49;7.85;;;1.85;;
47403;SDS011;33157;51.508;4.288;2023-01-09T04:44:50;8.60;;;1.38;;
47403;SDS011;33157;51.508;4.288;2023-01-09T04:49:53;9.45;;;1.80;;
47403;SDS011;33157;51.508;4.288;2023-01-09T04:54:53;8.98;;;1.95;;
47403;SDS011;33157;51.508;4.288;2023-01-09T04:59:54;13.27;;;1.90;;
47403;SDS011;33157;51.508;4.288;2023-01-09T05:04:59;13.35;;;1.95;;
47403;SDS011;33157;51.508;4.288;2023-01-09T05:10:00;9.73;;;1.92;;
47403;SDS011;33157;51.508;4.288;2023-01-09T05:15:02;8.02;;;1.60;;
47403;SDS011;33157;51.508;4.288;2023-01-09T05:20:03;9.57;;;1.58;;
47403;SDS011;33157;51.508;4.288;2023-01-09T05:25:04;11.25;;;2.90;;
47403;SDS011;33157;51.508;4.288;2023-01-09T05:30:11;10.85;;;1.98;;
47403;SDS011;33157;51.508;4.288;2023-01-09T05:35:12;12.32;;;1.52;;
47403;SDS011;33157;51.508;4.288;2023-01-09T05:40:22;8.95;;;1.88;;
47403;SDS011;33157;51.508;4.288;2023-01-09T05:45:23;13.18;;;2.95;;
47403;SDS011;33157;51.508;4.288;2023-01-09T05:55:26;12.57;;;2.80;;
47403;SDS011;33157;51.508;4.288;2023-01-09T06:00:27;15.15;;;2.78;;
47403;SDS011;33157;51.508;4.288;2023-01-09T06:05:32;16.08;;;3.05;;
47403;SDS011;33157;51.508;4.288;2023-01-09T06:10:33;20.83;;;3.35;;
47403;SDS011;33157;51.508;4.288;2023-01-09T06:15:33;12.93;;;2.75;;
47403;SDS011;33157;51.508;4.288;2023-01-09T06:20:34;12.18;;;3.30;;
47403;SDS011;33157;51.508;4.288;2023-01-09T06:25:34;7.75;;;1.40;;
47403;SDS011;33157;51.508;4.288;2023-01-09T06:30:35;4.50;;;1.00;;
47403;SDS011;33157;51.508;4.288;2023-01-09T06:35:35;8.30;;;0.88;;
47403;SDS011;33157;51.508;4.288;2023-01-09T06:40:36;8.80;;;1.27;;
47403;SDS011;33157;51.508;4.288;2023-01-09T06:45:36;11.05;;;2.00;;
47403;SDS011;33157;51.508;4.288;2023-01-09T06:50:37;13.27;;;1.83;;
47403;SDS011;33157;51.508;4.288;2023-01-09T06:55:37;13.52;;;2.25;;
47403;SDS011;33157;51.508;4.288;2023-01-09T07:00:38;9.85;;;1.70;;
47403;SDS011;33157;51.508;4.288;2023-01-09T07:05:45;7.35;;;3.28;;
47403;SDS011;33157;51.508;4.288;2023-01-09T07:10:46;13.88;;;1.60;;
47403;SDS011;33157;51.508;4.288;2023-01-09T07:15:47;18.08;;;2.58;;
47403;SDS011;33157;51.508;4.288;2023-01-09T07:20:54;9.02;;;1.77;;
47403;SDS011;33157;51.508;4.288;2023-01-09T07:25:55;10.30;;;2.70;;
47403;SDS011;33157;51.508;4.288;2023-01-09T07:31:01;6.78;;;1.98;;
47403;SDS011;33157;51.508;4.288;2023-01-09T07:36:03;7.03;;;2.10;;
47403;SDS011;33157;51.508;4.288;2023-01-09T07:41:09;6.70;;;2.17;;
47403;SDS011;33157;51.508;4.288;2023-01-09T07:46:10;7.60;;;2.08;;
47403;SDS011;33157;51.508;4.288;2023-01-09T07:51:11;15.05;;;2.83;;
47403;SDS011;33157;51.508;4.288;2023-01-09T07:56:17;11.48;;;2.85;;
47403;SDS011;33157;51.508;4.288;2023-01-09T08:01:18;15.55;;;2.90;;
47403;SDS011;33157;51.508;4.288;2023-01-09T08:06:23;9.02;;;2.53;;
47403;SDS011;33157;51.508;4.288;2023-01-09T08:11:24;11.13;;;2.50;;
47403;SDS011;33157;51.508;4.288;2023-01-09T08:16:34;8.32;;;1.77;;
47403;SDS011;33157;51.508;4.288;2023-01-09T08:21:35;11.15;;;2.50;;
47403;SDS011;33157;51.508;4.288;2023-01-09T08:26:36;9.25;;;1.85;;
47403;SDS011;33157;51.508;4.288;2023-01-09T08:31:42;9.45;;;2.10;;
47403;SDS011;33157;51.508;4.288;2023-01-09T08:36:42;6.20;;;2.00;;
47403;SDS011;33157;51.508;4.288;2023-01-09T08:41:48;12.77;;;1.98;;
47403;SDS011;33157;51.508;4.288;2023-01-09T08:47:07;14.88;;;2.35;;
47403;SDS011;33157;51.508;4.288;2023-01-09T08:52:13;14.13;;;1.88;;
47403;SDS011;33157;51.508;4.288;2023-01-09T08:57:14;10.50;;;2.10;;
47403;SDS011;33157;51.508;4.288;2023-01-09T09:02:21;6.13;;;1.42;;
47403;SDS011;33157;51.508;4.288;2023-01-09T09:07:24;9.43;;;1.60;;
47403;SDS011;33157;51.508;4.288;2023-01-09T09:12:27;8.65;;;1.42;;
47403;SDS011;33157;51.508;4.288;2023-01-09T09:17:34;4.07;;;1.23;;
47403;SDS011;33157;51.508;4.288;2023-01-09T09:22:35;5.47;;;1.90;;
47403;SDS011;33157;51.508;4.288;2023-01-09T09:27:42;7.25;;;1.60;;
47403;SDS011;33157;51.508;4.288;2023-01-09T09:32:45;10.02;;;2.17;;
47403;SDS011;33157;51.508;4.288;2023-01-09T09:37:56;5.47;;;2.63;;
47403;SDS011;33157;51.508;4.288;2023-01-09T09:48:47;11.93;;;3.40;;
47403;SDS011;33157;51.508;4.288;2023-01-09T09:59:18;14.52;;;2.95;;
47403;SDS011;33157;51.508;4.288;2023-01-09T10:04:21;8.17;;;2.67;;
47403;SDS011;33157;51.508;4.288;2023-01-09T10:09:35;10.82;;;2.63;;
47403;SDS011;33157;51.508;4.288;2023-01-09T10:14:42;15.15;;;3.10;;
47403;SDS011;33157;51.508;4.288;2023-01-09T10:31:01;12.73;;;3.20;;
47403;SDS011;33157;51.508;4.288;2023-01-09T10:47:00;15.77;;;3.20;;
47403;SDS011;33157;51.508;4.288;2023-01-09T10:52:15;19.08;;;3.08;;
47403;SDS011;33157;51.508;4.288;2023-01-09T10:57:25;33.20;;;3.65;;
47403;SDS011;33157;51.508;4.288;2023-01-09T11:02:32;14.70;;;3.65;;
47403;SDS011;33157;51.508;4.288;2023-01-09T11:07:36;13.73;;;3.10;;
47403;SDS011;33157;51.508;4.288;2023-01-09T11:12:38;12.65;;;2.75;;
47403;SDS011;33157;51.508;4.288;2023-01-09T11:17:39;11.25;;;3.08;;
47403;SDS011;33157;51.508;4.288;2023-01-09T11:22:46;18.73;;;4.20;;
47403;SDS011;33157;51.508;4.288;2023-01-09T11:28:05;11.73;;;2.50;;
47403;SDS011;33157;51.508;4.288;2023-01-09T11:33:14;12.15;;;2.90;;
47403;SDS011;33157;51.508;4.288;2023-01-09T11:38:19;13.35;;;3.00;;
47403;SDS011;33157;51.508;4.288;2023-01-09T11:43:53;15.65;;;4.13;;
47403;SDS011;33157;51.508;4.288;2023-01-09T11:49:04;25.38;;;3.50;;
47403;SDS011;33157;51.508;4.288;2023-01-09T11:59:30;18.90;;;4.40;;
47403;SDS011;33157;51.508;4.288;2023-01-09T12:25:27;23.83;;;5.20;;
47403;SDS011;33157;51.508;4.288;2023-01-09T12:46:23;18.67;;;3.97;;
47403;SDS011;33157;51.508;4.288;2023-01-09T12:51:38;19.35;;;3.65;;
47403;SDS011;33157;51.508;4.288;2023-01-09T12:56:44;22.15;;;3.83;;
47403;SDS011;33157;51.508;4.288;2023-01-09T13:01:49;21.08;;;3.70;;
47403;SDS011;33157;51.508;4.288;2023-01-09T13:07:22;15.80;;;3.03;;
47403;SDS011;33157;51.508;4.288;2023-01-09T13:12:26;17.05;;;2.78;;
47403;SDS011;33157;51.508;4.288;2023-01-09T13:17:39;16.75;;;3.65;;
47403;SDS011;33157;51.508;4.288;2023-01-09T13:22:56;22.35;;;3.58;;
47403;SDS011;33157;51.508;4.288;2023-01-09T13:27:58;18.77;;;3.97;;
47403;SDS011;33157;51.508;4.288;2023-01-09T13:33:15;19.33;;;3.42;;
47403;SDS011;33157;51.508;4.288;2023-01-09T13:38:26;16.73;;;2.95;;
47403;SDS011;33157;51.508;4.288;2023-01-09T13:43:50;25.98;;;4.07;;
47403;SDS011;33157;51.508;4.288;2023-01-09T13:49:01;16.20;;;3.42;;
47403;SDS011;33157;51.508;4.288;2023-01-09T13:54:02;16.05;;;3.10;;
47403;SDS011;33157;51.508;4.288;2023-01-09T13:59:10;17.27;;;2.65;;
47403;SDS011;33157;51.508;4.288;2023-01-09T14:04:35;17.13;;;3.17;;
47403;SDS011;33157;51.508;4.288;2023-01-09T14:09:45;29.23;;;3.03;;
47403;SDS011;33157;51.508;4.288;2023-01-09T14:14:57;23.23;;;3.40;;
47403;SDS011;33157;51.508;4.288;2023-01-09T14:20:00;23.52;;;3.90;;
47403;SDS011;33157;51.508;4.288;2023-01-09T14:25:06;18.77;;;3.00;;
47403;SDS011;33157;51.508;4.288;2023-01-09T14:35:26;25.33;;;3.88;;
47403;SDS011;33157;51.508;4.288;2023-01-09T14:40:59;24.50;;;3.22;;
47403;SDS011;33157;51.508;4.288;2023-01-09T14:46:49;11.32;;;1.45;;
47403;SDS011;33157;51.508;4.288;2023-01-09T14:51:49;10.95;;;2.33;;
47403;SDS011;33157;51.508;4.288;2023-01-09T14:56:51;10.93;;;2.03;;
47403;SDS011;33157;51.508;4.288;2023-01-09T15:01:57;11.75;;;2.47;;
47403;SDS011;33157;51.508;4.288;2023-01-09T15:06:58;13.55;;;2.63;;
47403;SDS011;33157;51.508;4.288;2023-01-09T15:12:05;12.48;;;2.35;;
47403;SDS011;33157;51.508;4.288;2023-01-09T15:17:23;11.02;;;2.50;;
47403;SDS011;33157;51.508;4.288;2023-01-09T15:22:27;10.15;;;2.00;;
47403;SDS011;33157;51.508;4.288;2023-01-09T15:27:29;13.13;;;2.60;;
47403;SDS011;33157;51.508;4.288;2023-01-09T15:32:36;7.85;;;1.55;;
47403;SDS011;33157;51.508;4.288;2023-01-09T15:37:38;13.32;;;1.83;;
47403;SDS011;33157;51.508;4.288;2023-01-09T15:42:39;8.63;;;1.40;;
47403;SDS011;33157;51.508;4.288;2023-01-09T15:47:55;12.18;;;2.03;;
47403;SDS011;33157;51.508;4.288;2023-01-09T15:53:32;9.23;;;2.28;;
47403;SDS011;33157;51.508;4.288;2023-01-09T15:58:36;11.38;;;2.40;;
47403;SDS011;33157;51.508;4.288;2023-01-09T16:03:43;5.78;;;1.15;;
47403;SDS011;33157;51.508;4.288;2023-01-09T16:08:50;13.27;;;2.28;;
47403;SDS011;33157;51.508;4.288;2023-01-09T16:14:27;7.88;;;1.58;;
47403;SDS011;33157;51.508;4.288;2023-01-09T16:24:39;10.33;;;1.93;;
47403;SDS011;33157;51.508;4.288;2023-01-09T16:29:44;14.65;;;1.85;;
47403;SDS011;33157;51.508;4.288;2023-01-09T16:34:58;8.45;;;1.88;;
47403;SDS011;33157;51.508;4.288;2023-01-09T16:45:08;10.30;;;1.83;;
47403;SDS011;33157;51.508;4.288;2023-01-09T16:50:12;6.75;;;2.38;;
47403;SDS011;33157;51.508;4.288;2023-01-09T16:55:16;9.60;;;2.58;;
47403;SDS011;33157;51.508;4.288;2023-01-09T17:00:22;7.95;;;1.90;;
47403;SDS011;33157;51.508;4.288;2023-01-09T17:05:22;13.50;;;3.00;;
47403;SDS011;33157;51.508;4.288;2023-01-09T17:10:28;11.45;;;2.28;;
47403;SDS011;33157;51.508;4.288;2023-01-09T17:15:29;12.25;;;2.72;;
47403;SDS011;33157;51.508;4.288;2023-01-09T17:20:35;17.90;;;3.58;;
47403;SDS011;33157;51.508;4.288;2023-01-09T17:25:36;17.42;;;3.85;;
47403;SDS011;33157;51.508;4.288;2023-01-09T17:31:02;20.20;;;4.60;;
47403;SDS011;33157;51.508;4.288;2023-01-09T17:41:22;16.40;;;2.90;;
47403;SDS011;33157;51.508;4.288;2023-01-09T17:46:34;16.98;;;4.25;;
47403;SDS011;33157;51.508;4.288;2023-01-09T17:51:41;17.87;;;3.80;;
47403;SDS011;33157;51.508;4.288;2023-01-09T17:56:42;11.40;;;3.08;;
47403;SDS011;33157;51.508;4.288;2023-01-09T18:01:45;16.63;;;3.67;;
47403;SDS011;33157;51.508;4.288;2023-01-09T18:06:51;19.85;;;4.00;;
47403;SDS011;33157;51.508;4.288;2023-01-09T18:11:53;26.50;;;5.60;;
47403;SDS011;33157;51.508;4.288;2023-01-09T18:16:59;19.98;;;3.47;;
47403;SDS011;33157;51.508;4.288;2023-01-09T18:22:01;20.13;;;4.13;;
47403;SDS011;33157;51.508;4.288;2023-01-09T18:27:08;18.00;;;4.25;;
47403;SDS011;33157;51.508;4.288;2023-01-09T18:32:09;14.52;;;3.60;;
47403;SDS011;33157;51.508;4.288;2023-01-09T18:37:09;18.60;;;3.65;;
47403;SDS011;33157;51.508;4.288;2023-01-09T18:42:10;16.08;;;3.72;;
47403;SDS011;33157;51.508;4.288;2023-01-09T18:47:11;17.48;;;3.30;;
47403;SDS011;33157;51.508;4.288;2023-01-09T18:52:13;11.70;;;3.37;;
47403;SDS011;33157;51.508;4.288;2023-01-09T18:57:13;13.23;;;3.60;;
47403;SDS011;33157;51.508;4.288;2023-01-09T19:02:29;23.42;;;4.05;;
47403;SDS011;33157;51.508;4.288;2023-01-09T19:07:30;19.80;;;3.83;;
47403;SDS011;33157;51.508;4.288;2023-01-09T19:12:31;19.67;;;4.18;;
47403;SDS011;33157;51.508;4.288;2023-01-09T19:17:38;18.50;;;3.80;;
47403;SDS011;33157;51.508;4.288;2023-01-09T19:22:38;13.00;;;2.20;;
47403;SDS011;33157;51.508;4.288;2023-01-09T19:27:44;16.02;;;3.08;;
47403;SDS011;33157;51.508;4.288;2023-01-09T19:32:45;17.75;;;2.70;;
47403;SDS011;33157;51.508;4.288;2023-01-09T19:37:51;14.60;;;3.70;;
47403;SDS011;33157;51.508;4.288;2023-01-09T19:42:52;15.63;;;3.05;;
47403;SDS011;33157;51.508;4.288;2023-01-09T19:47:56;18.58;;;3.05;;
47403;SDS011;33157;51.508;4.288;2023-01-09T19:52:56;19.05;;;3.00;;
47403;SDS011;33157;51.508;4.288;2023-01-09T19:57:57;20.38;;;3.53;;
47403;SDS011;33157;51.508;4.288;2023-01-09T20:03:04;15.48;;;3.10;;
47403;SDS011;33157;51.508;4.288;2023-01-09T20:08:04;28.65;;;4.75;;
47403;SDS011;33157;51.508;4.288;2023-01-09T20:13:07;17.45;;;3.03;;
47403;SDS011;33157;51.508;4.288;2023-01-09T20:18:33;13.02;;;2.38;;
47403;SDS011;33157;51.508;4.288;2023-01-09T20:23:40;15.73;;;3.77;;
47403;SDS011;33157;51.508;4.288;2023-01-09T20:28:40;16.30;;;3.10;;
47403;SDS011;33157;51.508;4.288;2023-01-09T20:33:41;18.77;;;3.38;;
47403;SDS011;33157;51.508;4.288;2023-01-09T20:38:48;23.50;;;4.15;;
47403;SDS011;33157;51.508;4.288;2023-01-09T20:43:54;17.13;;;2.88;;
47403;SDS011;33157;51.508;4.288;2023-01-09T20:49:04;16.35;;;3.42;;
47403;SDS011;33157;51.508;4.288;2023-01-09T20:54:06;19.73;;;3.15;;
47403;SDS011;33157;51.508;4.288;2023-01-09T20:59:13;14.75;;;3.13;;
47403;SDS011;33157;51.508;4.288;2023-01-09T21:04:21;16.00;;;2.88;;
47403;SDS011;33157;51.508;4.288;2023-01-09T21:09:28;12.02;;;3.15;;
47403;SDS011;33157;51.508;4.288;2023-01-09T21:14:29;20.80;;;4.65;;
47403;SDS011;33157;51.508;4.288;2023-01-09T21:19:30;17.80;;;3.70;;
47403;SDS011;33157;51.508;4.288;2023-01-09T21:24:31;20.98;;;3.67;;
47403;SDS011;33157;51.508;4.288;2023-01-09T21:29:31;19.95;;;4.35;;
47403;SDS011;33157;51.508;4.288;2023-01-09T21:34:38;11.93;;;2.95;;
47403;SDS011;33157;51.508;4.288;2023-01-09T21:39:39;22.98;;;4.88;;
47403;SDS011;33157;51.508;4.288;2023-01-09T21:44:39;26.35;;;4.22;;
47403;SDS011;33157;51.508;4.288;2023-01-09T21:49:58;22.80;;;3.13;;
47403;SDS011;33157;51.508;4.288;2023-01-09T21:54:59;17.95;;;3.58;;
47403;SDS011;33157;51.508;4.288;2023-01-09T21:59:59;18.48;;;3.80;;
47403;SDS011;33157;51.508;4.288;2023-01-09T22:05:00;17.40;;;3.20;;
47403;SDS011;33157;51.508;4.288;2023-01-09T22:10:00;16.30;;;3.10;;
47403;SDS011;33157;51.508;4.288;2023-01-09T22:15:01;15.80;;;2.50;;
47403;SDS011;33157;51.508;4.288;2023-01-09T22:20:02;17.65;;;2.67;;
47403;SDS011;33157;51.508;4.288;2023-01-09T22:25:02;16.92;;;2.92;;
47403;SDS011;33157;51.508;4.288;2023-01-09T22:30:04;12.38;;;2.47;;
47403;SDS011;33157;51.508;4.288;2023-01-09T22:35:05;15.27;;;2.58;;
47403;SDS011;33157;51.508;4.288;2023-01-09T22:40:07;16.10;;;4.55;;
47403;SDS011;33157;51.508;4.288;2023-01-09T22:45:13;17.35;;;2.30;;
47403;SDS011;33157;51.508;4.288;2023-01-09T22:50:20;16.38;;;3.90;;
47403;SDS011;33157;51.508;4.288;2023-01-09T22:55:24;14.25;;;2.70;;
47403;SDS011;33157;51.508;4.288;2023-01-09T23:00:24;15.75;;;2.72;;
47403;SDS011;33157;51.508;4.288;2023-01-09T23:05:25;21.73;;;3.45;;
47403;SDS011;33157;51.508;4.288;2023-01-09T23:10:31;15.57;;;2.80;;
47403;SDS011;33157;51.508;4.288;2023-01-09T23:15:37;14.85;;;2.83;;
47403;SDS011;33157;51.508;4.288;2023-01-09T23:20:37;12.60;;;2.63;;
47403;SDS011;33157;51.508;4.288;2023-01-09T23:25:57;13.23;;;2.50;;
47403;SDS011;33157;51.508;4.288;2023-01-09T23:31:09;27.67;;;3.17;;
47403;SDS011;33157;51.508;4.288;2023-01-09T23:36:09;21.20;;;3.10;;
47403;SDS011;33157;51.508;4.288;2023-01-09T23:41:10;21.98;;;2.65;;
47403;SDS011;33157;51.508;4.288;2023-01-09T23:46:10;15.77;;;2.53;;
47403;SDS011;33157;51.508;4.288;2023-01-09T23:51:13;16.38;;;3.10;;
47403;SDS011;33157;51.508;4.288;2023-01-09T23:56:19;16.40;;;2.80;;
